Terminal Aerodrome Forecast
Issued by NWS Cleveland, OH

Home | Current Version | Previous Version | Graphics & Text | Print | Product List | Glossary On
Versions: 1 2 3 4 5 6 7 8 9 10 11 12 13 14 15 16 17 18 19 20 21 22 23 24
845
FTUS41 KCLE 091041 AAB
TAFCAK
TAF AMD
KCAK 091041Z 0911/1006 27008KT P6SM SCT008 OVC015
     FM091700 27011KT 6SM -SHSN OVC015
     FM092300 26010KT P6SM BKN025=

USA.gov is the U.S. government's official web portal to all federal, state and local government web resources and services.